sensor_id;sensor_type;location;lat;lon;timestamp;pressure;altitude;pressure_sealevel;temperature;humidity
46129;BME280;31860;45.186;5.790;2023-04-29T00:01:55;98926.34;;;21.23;100.00
46129;BME280;31860;45.186;5.790;2023-04-29T00:04:23;98923.72;;;21.21;100.00
46129;BME280;31860;45.186;5.790;2023-04-29T00:06:49;98913.09;;;21.21;100.00
46129;BME280;31860;45.186;5.790;2023-04-29T00:09:14;98913.09;;;21.21;100.00
46129;BME280;31860;45.186;5.790;2023-04-29T00:11:40;98915.13;;;21.16;100.00
46129;BME280;31860;45.186;5.790;2023-04-29T00:14:05;98912.34;;;21.19;100.00
46129;BME280;31860;45.186;5.790;2023-04-29T00:16:31;98909.59;;;21.21;100.00
46129;BME280;31860;45.186;5.790;2023-04-29T00:18:56;98902.53;;;21.20;100.00
46129;BME280;31860;45.186;5.790;2023-04-29T00:21:22;98906.00;;;21.22;100.00
46129;BME280;31860;45.186;5.790;2023-04-29T00:23:48;98914.91;;;21.21;100.00
46129;BME280;31860;45.186;5.790;2023-04-29T00:26:13;98926.38;;;21.21;100.00
46129;BME280;31860;45.186;5.790;2023-04-29T00:28:39;98928.13;;;21.22;100.00
46129;BME280;31860;45.186;5.790;2023-04-29T00:31:04;98925.38;;;21.24;100.00
46129;BME280;31860;45.186;5.790;2023-04-29T00:33:30;98913.03;;;21.23;100.00
46129;BME280;31860;45.186;5.790;2023-04-29T00:35:55;98897.09;;;21.23;100.00
46129;BME280;31860;45.186;5.790;2023-04-29T00:38:21;98911.31;;;21.22;100.00
46129;BME280;31860;45.186;5.790;2023-04-29T00:40:46;98915.69;;;21.23;100.00
46129;BME280;31860;45.186;5.790;2023-04-29T00:43:12;98915.69;;;21.23;100.00
46129;BME280;31860;45.186;5.790;2023-04-29T00:45:37;98909.50;;;21.22;100.00
46129;BME280;31860;45.186;5.790;2023-04-29T00:48:03;98912.16;;;21.22;100.00
46129;BME280;31860;45.186;5.790;2023-04-29T00:50:28;98913.97;;;21.22;100.00
46129;BME280;31860;45.186;5.790;2023-04-29T00:52:54;98909.59;;;21.21;100.00
46129;BME280;31860;45.186;5.790;2023-04-29T00:55:20;98910.50;;;21.20;100.00
46129;BME280;31860;45.186;5.790;2023-04-29T00:57:47;98910.50;;;21.20;100.00
46129;BME280;31860;45.186;5.790;2023-04-29T01:00:13;98911.38;;;21.20;100.00
46129;BME280;31860;45.186;5.790;2023-04-29T01:02:40;98900.84;;;21.19;100.00
46129;BME280;31860;45.186;5.790;2023-04-29T01:05:06;98906.16;;;21.19;100.00
46129;BME280;31860;45.186;5.790;2023-04-29T01:10:31;98909.81;;;21.16;100.00
46129;BME280;31860;45.186;5.790;2023-04-29T01:13:10;98905.34;;;21.17;100.00
46129;BME280;31860;45.186;5.790;2023-04-29T01:16:00;98906.22;;;21.17;100.00
46129;BME280;31860;45.186;5.790;2023-04-29T01:18:31;98905.34;;;21.17;100.00
46129;BME280;31860;45.186;5.790;2023-04-29T01:20:58;98914.19;;;21.17;100.00
46129;BME280;31860;45.186;5.790;2023-04-29T01:23:30;98903.50;;;21.19;100.00
46129;BME280;31860;45.186;5.790;2023-04-29T01:25:56;98905.34;;;21.17;100.00
46129;BME280;31860;45.186;5.790;2023-04-29T01:31:06;98904.41;;;21.18;100.00
46129;BME280;31860;45.186;5.790;2023-04-29T01:33:43;98902.69;;;21.17;100.00
46129;BME280;31860;45.186;5.790;2023-04-29T01:36:20;98893.94;;;21.15;100.00
46129;BME280;31860;45.186;5.790;2023-04-29T01:42:15;98888.63;;;21.15;100.00
46129;BME280;31860;45.186;5.790;2023-04-29T01:44:42;98877.22;;;21.13;100.00
46129;BME280;31860;45.186;5.790;2023-04-29T01:47:10;98878.06;;;21.13;100.00
46129;BME280;31860;45.186;5.790;2023-04-29T01:49:37;98879.88;;;21.13;100.00
46129;BME280;31860;45.186;5.790;2023-04-29T01:52:04;98879.88;;;21.13;100.00
46129;BME280;31860;45.186;5.790;2023-04-29T01:54:29;98876.25;;;21.14;100.00
46129;BME280;31860;45.186;5.790;2023-04-29T01:56:55;98873.69;;;21.12;100.00
46129;BME280;31860;45.186;5.790;2023-04-29T01:59:21;98869.25;;;21.13;100.00
46129;BME280;31860;45.186;5.790;2023-04-29T02:01:46;98875.53;;;21.10;100.00
46129;BME280;31860;45.186;5.790;2023-04-29T02:04:12;98875.63;;;21.09;100.00
46129;BME280;31860;45.186;5.790;2023-04-29T02:06:37;98880.03;;;21.10;100.00
46129;BME280;31860;45.186;5.790;2023-04-29T02:09:03;98866.78;;;21.08;100.00
46129;BME280;31860;45.186;5.790;2023-04-29T02:11:29;98859.69;;;21.09;100.00
46129;BME280;31860;45.186;5.790;2023-04-29T02:13:54;98858.78;;;21.10;100.00
46129;BME280;31860;45.186;5.790;2023-04-29T02:16:20;98860.47;;;21.11;100.00
46129;BME280;31860;45.186;5.790;2023-04-29T02:18:46;98871.97;;;21.11;100.00
46129;BME280;31860;45.186;5.790;2023-04-29T02:21:12;98865.78;;;21.11;100.00
46129;BME280;31860;45.186;5.790;2023-04-29T02:23:40;98864.94;;;21.10;100.00
46129;BME280;31860;45.186;5.790;2023-04-29T02:26:06;98858.78;;;21.10;100.00
46129;BME280;31860;45.186;5.790;2023-04-29T02:28:33;98857.91;;;21.09;100.00
46129;BME280;31860;45.186;5.790;2023-04-29T02:30:59;98844.63;;;21.09;100.00
46129;BME280;31860;45.186;5.790;2023-04-29T02:33:24;98837.53;;;21.10;100.00
46129;BME280;31860;45.186;5.790;2023-04-29T02:35:50;98848.16;;;21.10;100.00
46129;BME280;31860;45.186;5.790;2023-04-29T02:38:16;98858.69;;;21.11;100.00
46129;BME280;31860;45.186;5.790;2023-04-29T02:40:42;98869.31;;;21.11;100.00
46129;BME280;31860;45.186;5.790;2023-04-29T02:43:08;98860.41;;;21.12;100.00
46129;BME280;31860;45.186;5.790;2023-04-29T02:45:34;98844.47;;;21.12;100.00
46129;BME280;31860;45.186;5.790;2023-04-29T02:47:59;98838.31;;;21.12;100.00
46129;BME280;31860;45.186;5.790;2023-04-29T02:50:25;98840.19;;;21.10;100.00
46129;BME280;31860;45.186;5.790;2023-04-29T02:52:51;98830.47;;;21.09;100.00
46129;BME280;31860;45.186;5.790;2023-04-29T02:55:16;98837.56;;;21.08;100.00
46129;BME280;31860;45.186;5.790;2023-04-29T02:57:42;98852.72;;;21.06;100.00
46129;BME280;31860;45.186;5.790;2023-04-29T03:00:08;98861.47;;;21.08;100.00
46129;BME280;31860;45.186;5.790;2023-04-29T03:02:34;98874.84;;;21.07;100.00
46129;BME280;31860;45.186;5.790;2023-04-29T03:05:00;98901.41;;;21.07;100.00
46129;BME280;31860;45.186;5.790;2023-04-29T03:07:25;98948.34;;;21.06;100.00
46129;BME280;31860;45.186;5.790;2023-04-29T03:09:52;98986.41;;;21.07;100.00
46129;BME280;31860;45.186;5.790;2023-04-29T03:12:17;99012.19;;;21.05;100.00
46129;BME280;31860;45.186;5.790;2023-04-29T03:14:43;99028.09;;;21.05;100.00
46129;BME280;31860;45.186;5.790;2023-04-29T03:17:08;99024.63;;;21.04;100.00
46129;BME280;31860;45.186;5.790;2023-04-29T03:19:33;99034.44;;;21.02;100.00
46129;BME280;31860;45.186;5.790;2023-04-29T03:21:59;99045.16;;;20.99;100.00
46129;BME280;31860;45.186;5.790;2023-04-29T03:24:24;99026.63;;;20.98;100.00
46129;BME280;31860;45.186;5.790;2023-04-29T03:26:49;98987.06;;;20.92;100.00
46129;BME280;31860;45.186;5.790;2023-04-29T03:29:15;98999.63;;;20.88;100.00
46129;BME280;31860;45.186;5.790;2023-04-29T03:31:40;99013.88;;;20.86;100.00
46129;BME280;31860;45.186;5.790;2023-04-29T03:34:06;99004.22;;;20.85;100.00
46129;BME280;31860;45.186;5.790;2023-04-29T03:36:31;98983.13;;;20.82;100.00
46129;BME280;31860;45.186;5.790;2023-04-29T03:38:56;98983.88;;;20.84;100.00
46129;BME280;31860;45.186;5.790;2023-04-29T03:41:22;98990.06;;;20.84;100.00
46129;BME280;31860;45.186;5.790;2023-04-29T03:43:48;98958.44;;;20.80;100.00
46129;BME280;31860;45.186;5.790;2023-04-29T03:46:14;98909.84;;;20.77;100.00
46129;BME280;31860;45.186;5.790;2023-04-29T03:48:39;98913.41;;;20.76;100.00
46129;BME280;31860;45.186;5.790;2023-04-29T03:51:05;98948.94;;;20.74;100.00
46129;BME280;31860;45.186;5.790;2023-04-29T03:53:30;98966.50;;;20.76;100.00
46129;BME280;31860;45.186;5.790;2023-04-29T03:55:57;98994.81;;;20.77;100.00
46129;BME280;31860;45.186;5.790;2023-04-29T03:58:22;98996.59;;;20.77;100.00
46129;BME280;31860;45.186;5.790;2023-04-29T04:00:48;98992.06;;;20.79;100.00
46129;BME280;31860;45.186;5.790;2023-04-29T04:03:13;99005.34;;;20.79;100.00
46129;BME280;31860;45.186;5.790;2023-04-29T04:05:38;98994.81;;;20.77;100.00
46129;BME280;31860;45.186;5.790;2023-04-29T04:08:04;98977.00;;;20.80;100.00
46129;BME280;31860;45.186;5.790;2023-04-29T04:10:30;98971.63;;;20.81;100.00
46129;BME280;31860;45.186;5.790;2023-04-29T04:12:55;98963.78;;;20.78;100.00
46129;BME280;31860;45.186;5.790;2023-04-29T04:15:21;98971.75;;;20.78;100.00
46129;BME280;31860;45.186;5.790;2023-04-29T04:17:46;98976.25;;;20.76;100.00
46129;BME280;31860;45.186;5.790;2023-04-29T04:20:12;98970.91;;;20.77;100.00
46129;BME280;31860;45.186;5.790;2023-04-29T04:22:38;98971.81;;;20.76;100.00
46129;BME280;31860;45.186;5.790;2023-04-29T04:25:03;98973.56;;;20.77;100.00
46129;BME280;31860;45.186;5.790;2023-04-29T04:27:29;98976.22;;;20.77;100.00
46129;BME280;31860;45.186;5.790;2023-04-29T04:29:55;98981.53;;;20.77;100.00
46129;BME280;31860;45.186;5.790;2023-04-29T04:32:21;98981.53;;;20.77;100.00
46129;BME280;31860;45.186;5.790;2023-04-29T04:34:48;98990.34;;;20.78;100.00
46129;BME280;31860;45.186;5.790;2023-04-29T04:37:13;98988.63;;;20.77;100.00
46129;BME280;31860;45.186;5.790;2023-04-29T04:39:38;98983.31;;;20.77;100.00
46129;BME280;31860;45.186;5.790;2023-04-29T04:42:04;98981.53;;;20.77;100.00
46129;BME280;31860;45.186;5.790;2023-04-29T04:44:29;98962.97;;;20.76;100.00
46129;BME280;31860;45.186;5.790;2023-04-29T04:46:55;98971.81;;;20.76;100.00
46129;BME280;31860;45.186;5.790;2023-04-29T04:49:22;98986.88;;;20.76;100.00
46129;BME280;31860;45.186;5.790;2023-04-29T04:51:49;98978.16;;;20.74;100.00
46129;BME280;31860;45.186;5.790;2023-04-29T04:54:14;98976.41;;;20.73;100.00
46129;BME280;31860;45.186;5.790;2023-04-29T04:56:40;98966.72;;;20.72;100.00
46129;BME280;31860;45.186;5.790;2023-04-29T04:59:05;98957.81;;;20.73;100.00
46129;BME280;31860;45.186;5.790;2023-04-29T05:01:31;98948.16;;;20.72;100.00
46129;BME280;31860;45.186;5.790;2023-04-29T05:03:56;98956.03;;;20.73;100.00
46129;BME280;31860;45.186;5.790;2023-04-29T05:06:22;98961.34;;;20.73;100.00
46129;BME280;31860;45.186;5.790;2023-04-29T05:08:48;98955.16;;;20.73;100.00
46129;BME280;31860;45.186;5.790;2023-04-29T05:11:17;98955.16;;;20.73;100.00
46129;BME280;31860;45.186;5.790;2023-04-29T05:13:43;98955.16;;;20.73;100.00
46129;BME280;31860;45.186;5.790;2023-04-29T05:16:08;98952.44;;;20.74;100.00
46129;BME280;31860;45.186;5.790;2023-04-29T05:18:33;98937.44;;;20.73;100.00
46129;BME280;31860;45.186;5.790;2023-04-29T05:20:59;98940.09;;;20.73;100.00
46129;BME280;31860;45.186;5.790;2023-04-29T05:23:24;98934.78;;;20.73;100.00
46129;BME280;31860;45.186;5.790;2023-04-29T05:25:50;98936.50;;;20.74;100.00
46129;BME280;31860;45.186;5.790;2023-04-29T05:28:15;98946.34;;;20.72;100.00
46129;BME280;31860;45.186;5.790;2023-04-29T05:30:41;98941.97;;;20.71;100.00
46129;BME280;31860;45.186;5.790;2023-04-29T05:33:06;98948.16;;;20.72;100.00
46129;BME280;31860;45.186;5.790;2023-04-29T05:35:31;98945.53;;;20.70;100.00
46129;BME280;31860;45.186;5.790;2023-04-29T05:37:57;98944.69;;;20.70;100.00
46129;BME280;31860;45.186;5.790;2023-04-29T05:40:22;98954.53;;;20.68;100.00
46129;BME280;31860;45.186;5.790;2023-04-29T05:42:48;98960.75;;;20.67;100.00
46129;BME280;31860;45.186;5.790;2023-04-29T05:45:13;98957.25;;;20.66;100.00
46129;BME280;31860;45.186;5.790;2023-04-29T05:47:39;98965.22;;;20.66;100.00
46129;BME280;31860;45.186;5.790;2023-04-29T05:50:04;98961.69;;;20.66;100.00
46129;BME280;31860;45.186;5.790;2023-04-29T05:52:30;98970.56;;;20.65;100.00
46129;BME280;31860;45.186;5.790;2023-04-29T05:54:56;98966.13;;;20.65;100.00
46129;BME280;31860;45.186;5.790;2023-04-29T05:57:22;98961.75;;;20.64;100.00
46129;BME280;31860;45.186;5.790;2023-04-29T05:59:47;98959.09;;;20.64;100.00
46129;BME280;31860;45.186;5.790;2023-04-29T06:02:12;98965.25;;;20.65;100.00
46129;BME280;31860;45.186;5.790;2023-04-29T06:04:38;98963.47;;;20.65;100.00
46129;BME280;31860;45.186;5.790;2023-04-29T06:07:05;98965.34;;;20.63;100.00
46129;BME280;31860;45.186;5.790;2023-04-29T06:09:34;98967.06;;;20.64;100.00
46129;BME280;31860;45.186;5.790;2023-04-29T06:12:00;98964.47;;;20.63;100.00
46129;BME280;31860;45.186;5.790;2023-04-29T06:14:25;98969.84;;;20.61;100.00
46129;BME280;31860;45.186;5.790;2023-04-29T06:16:51;98965.41;;;20.62;100.00
46129;BME280;31860;45.186;5.790;2023-04-29T06:19:16;98972.50;;;20.61;100.00
46129;BME280;31860;45.186;5.790;2023-04-29T06:21:42;98975.22;;;20.60;100.00
46129;BME280;31860;45.186;5.790;2023-04-29T06:24:07;98979.66;;;20.59;100.00
46129;BME280;31860;45.186;5.790;2023-04-29T06:26:33;98977.97;;;20.58;100.00
46129;BME280;31860;45.186;5.790;2023-04-29T06:28:58;98976.22;;;20.57;100.00
46129;BME280;31860;45.186;5.790;2023-04-29T06:31:23;98978.03;;;20.57;100.00
46129;BME280;31860;45.186;5.790;2023-04-29T06:33:49;98973.56;;;20.57;100.00
46129;BME280;31860;45.186;5.790;2023-04-29T06:36:15;98974.44;;;20.58;100.00
46129;BME280;31860;45.186;5.790;2023-04-29T06:38:40;98977.97;;;20.58;100.00
46129;BME280;31860;45.186;5.790;2023-04-29T06:41:06;98972.66;;;20.58;100.00
46129;BME280;31860;45.186;5.790;2023-04-29T06:43:31;98971.69;;;20.59;100.00
46129;BME280;31860;45.186;5.790;2023-04-29T06:45:57;98972.66;;;20.58;100.00
46129;BME280;31860;45.186;5.790;2023-04-29T06:48:22;98966.47;;;20.58;100.00
46129;BME280;31860;45.186;5.790;2023-04-29T06:50:55;98970.91;;;20.57;100.00
46129;BME280;31860;45.186;5.790;2023-04-29T06:53:21;98962.09;;;20.57;100.00
46129;BME280;31860;45.186;5.790;2023-04-29T06:55:47;98970.06;;;20.57;100.00
46129;BME280;31860;45.186;5.790;2023-04-29T06:58:16;98969.19;;;20.56;100.00
46129;BME280;31860;45.186;5.790;2023-04-29T07:00:46;98963.88;;;20.56;100.00
46129;BME280;31860;45.186;5.790;2023-04-29T07:03:13;98967.34;;;20.58;100.00
46129;BME280;31860;45.186;5.790;2023-04-29T07:05:38;98965.59;;;20.57;100.00
46129;BME280;31860;45.186;5.790;2023-04-29T07:08:06;98974.44;;;20.58;100.00
46129;BME280;31860;45.186;5.790;2023-04-29T07:10:31;98984.91;;;20.61;100.00
46129;BME280;31860;45.186;5.790;2023-04-29T07:12:57;98983.13;;;20.61;100.00
46129;BME280;31860;45.186;5.790;2023-04-29T07:15:23;98978.59;;;20.63;100.00
46129;BME280;31860;45.186;5.790;2023-04-29T07:17:49;98977.69;;;20.64;100.00
46129;BME280;31860;45.186;5.790;2023-04-29T07:20:14;98981.97;;;20.67;100.00
46129;BME280;31860;45.186;5.790;2023-04-29T07:22:40;98981.97;;;20.67;100.00
46129;BME280;31860;45.186;5.790;2023-04-29T07:25:05;98981.88;;;20.70;100.00
46129;BME280;31860;45.186;5.790;2023-04-29T07:27:34;98987.09;;;20.71;100.00
46129;BME280;31860;45.186;5.790;2023-04-29T07:30:00;98981.78;;;20.71;100.00
46129;BME280;31860;45.186;5.790;2023-04-29T07:32:26;98980.84;;;20.72;100.00
46129;BME280;31860;45.186;5.790;2023-04-29T07:34:51;98978.19;;;20.72;100.00
46129;BME280;31860;45.186;5.790;2023-04-29T07:37:17;98986.03;;;20.75;100.00
46129;BME280;31860;45.186;5.790;2023-04-29T07:39:42;98980.56;;;20.78;100.00
46129;BME280;31860;45.186;5.790;2023-04-29T07:42:08;98957.47;;;20.81;100.00
46129;BME280;31860;45.186;5.790;2023-04-29T07:44:33;98961.72;;;20.85;100.00
46129;BME280;31860;45.186;5.790;2023-04-29T07:47:00;98956.34;;;20.86;100.00
46129;BME280;31860;45.186;5.790;2023-04-29T07:49:26;98956.22;;;20.89;100.00
46129;BME280;31860;45.186;5.790;2023-04-29T07:51:51;98963.97;;;20.94;100.00
46129;BME280;31860;45.186;5.790;2023-04-29T07:54:17;98964.69;;;20.97;100.00
46129;BME280;31860;45.186;5.790;2023-04-29T07:56:44;98961.03;;;21.00;100.00
46129;BME280;31860;45.186;5.790;2023-04-29T07:59:09;98952.09;;;21.02;100.00
46129;BME280;31860;45.186;5.790;2023-04-29T08:01:35;98956.38;;;21.05;100.00
46129;BME280;31860;45.186;5.790;2023-04-29T08:04:00;98962.41;;;21.08;100.00
46129;BME280;31860;45.186;5.790;2023-04-29T08:06:26;98954.41;;;21.10;100.00
46129;BME280;31860;45.186;5.790;2023-04-29T08:08:51;98956.03;;;21.12;100.00
46129;BME280;31860;45.186;5.790;2023-04-29T08:11:19;98957.78;;;21.13;100.00
46129;BME280;31860;45.186;5.790;2023-04-29T08:13:45;98962.16;;;21.14;100.00
46129;BME280;31860;45.186;5.790;2023-04-29T08:16:11;98956.72;;;21.17;100.00
46129;BME280;31860;45.186;5.790;2023-04-29T08:18:37;98956.63;;;21.19;100.00
46129;BME280;31860;45.186;5.790;2023-04-29T08:21:03;98952.19;;;21.19;100.00
46129;BME280;31860;45.186;5.790;2023-04-29T08:23:28;98954.75;;;21.21;100.00
46129;BME280;31860;45.186;5.790;2023-04-29T08:25:54;98960.88;;;21.23;100.00
46129;BME280;31860;45.186;5.790;2023-04-29T08:28:23;98951.94;;;21.24;100.00
46129;BME280;31860;45.186;5.790;2023-04-29T08:30:49;98950.97;;;21.26;100.00
46129;BME280;31860;45.186;5.790;2023-04-29T08:33:15;98946.44;;;21.28;100.00
46129;BME280;31860;45.186;5.790;2023-04-29T08:35:41;98935.72;;;21.30;100.00
46129;BME280;31860;45.186;5.790;2023-04-29T08:38:08;98932.91;;;21.33;100.00
46129;BME280;31860;45.186;5.790;2023-04-29T08:40:43;98924.81;;;21.36;100.00
46129;BME280;31860;45.186;5.790;2023-04-29T08:43:12;98923.50;;;21.44;100.00
46129;BME280;31860;45.186;5.790;2023-04-29T08:45:38;98925.00;;;21.50;100.00
46129;BME280;31860;45.186;5.790;2023-04-29T08:48:07;98922.03;;;21.56;100.00
46129;BME280;31860;45.186;5.790;2023-04-29T08:50:39;98911.13;;;21.62;100.00
46129;BME280;31860;45.186;5.790;2023-04-29T08:53:09;98916.97;;;21.68;100.00
46129;BME280;31860;45.186;5.790;2023-04-29T08:55:39;98925.59;;;21.74;100.00
46129;BME280;31860;45.186;5.790;2023-04-29T08:58:06;98931.50;;;21.80;100.00
46129;BME280;31860;45.186;5.790;2023-04-29T09:00:34;98926.84;;;21.85;100.00
46129;BME280;31860;45.186;5.790;2023-04-29T09:03:03;98931.81;;;21.91;100.00
46129;BME280;31860;45.186;5.790;2023-04-29T09:05:35;98928.09;;;21.95;100.00
46129;BME280;31860;45.186;5.790;2023-04-29T09:08:03;98930.53;;;22.00;100.00
46129;BME280;31860;45.186;5.790;2023-04-29T09:10:29;98928.56;;;22.03;100.00
46129;BME280;31860;45.186;5.790;2023-04-29T09:12:57;98929.97;;;22.10;100.00
46129;BME280;31860;45.186;5.790;2023-04-29T09:15:23;98926.22;;;22.14;100.00
46129;BME280;31860;45.186;5.790;2023-04-29T09:17:48;98922.38;;;22.20;100.00
46129;BME280;31860;45.186;5.790;2023-04-29T09:22:54;98926.44;;;22.27;100.00
46129;BME280;31860;45.186;5.790;2023-04-29T09:25:20;98930.75;;;22.29;100.00
46129;BME280;31860;45.186;5.790;2023-04-29T09:27:46;98931.53;;;22.31;100.00
46129;BME280;31860;45.186;5.790;2023-04-29T09:30:11;98928.78;;;22.33;100.00
46129;BME280;31860;45.186;5.790;2023-04-29T09:32:38;98952.75;;;22.33;100.00
46129;BME280;31860;45.186;5.790;2023-04-29T09:35:26;98956.38;;;22.32;100.00
46129;BME280;31860;45.186;5.790;2023-04-29T09:37:52;98960.81;;;22.31;100.00
46129;BME280;31860;45.186;5.790;2023-04-29T09:40:31;98954.63;;;22.31;100.00
46129;BME280;31860;45.186;5.790;2023-04-29T09:43:00;98951.13;;;22.30;100.00
46129;BME280;31860;45.186;5.790;2023-04-29T09:45:38;98953.00;;;22.28;100.00
46129;BME280;31860;45.186;5.790;2023-04-29T09:48:06;98963.56;;;22.30;100.00
46129;BME280;31860;45.186;5.790;2023-04-29T09:50:33;98962.63;;;22.31;100.00
46129;BME280;31860;45.186;5.790;2023-04-29T09:53:01;98959.13;;;22.30;100.00
46129;BME280;31860;45.186;5.790;2023-04-29T09:55:27;98971.56;;;22.30;100.00
46129;BME280;31860;45.186;5.790;2023-04-29T09:57:54;98966.22;;;22.30;100.00
46129;BME280;31860;45.186;5.790;2023-04-29T10:00:20;98969.75;;;22.30;100.00
46129;BME280;31860;45.186;5.790;2023-04-29T10:02:47;98967.09;;;22.30;100.00
46129;BME280;31860;45.186;5.790;2023-04-29T10:05:14;98962.69;;;22.29;100.00
46129;BME280;31860;45.186;5.790;2023-04-29T10:07:40;98964.47;;;22.29;100.00
46129;BME280;31860;45.186;5.790;2023-04-29T10:10:08;98975.13;;;22.29;100.00
46129;BME280;31860;45.186;5.790;2023-04-29T10:12:35;98968.97;;;22.28;100.00
46129;BME280;31860;45.186;5.790;2023-04-29T10:17:43;98975.22;;;22.27;100.00
46129;BME280;31860;45.186;5.790;2023-04-29T10:20:13;98969.91;;;22.27;100.00
46129;BME280;31860;45.186;5.790;2023-04-29T10:22:54;98969.91;;;22.27;100.00
46129;BME280;31860;45.186;5.790;2023-04-29T10:25:23;98975.13;;;22.29;100.00
46129;BME280;31860;45.186;5.790;2023-04-29T10:27:49;98968.09;;;22.28;100.00
46129;BME280;31860;45.186;5.790;2023-04-29T10:30:18;98968.97;;;22.28;100.00
46129;BME280;31860;45.186;5.790;2023-04-29T10:32:45;98968.09;;;22.28;100.00
46129;BME280;31860;45.186;5.790;2023-04-29T10:35:12;98968.09;;;22.28;100.00
46129;BME280;31860;45.186;5.790;2023-04-29T10:37:39;98963.66;;;22.28;100.00
46129;BME280;31860;45.186;5.790;2023-04-29T10:40:15;98968.09;;;22.28;100.00
46129;BME280;31860;45.186;5.790;2023-04-29T10:42:46;98971.63;;;22.28;100.00
46129;BME280;31860;45.186;5.790;2023-04-29T10:45:31;98967.16;;;22.29;100.00
46129;BME280;31860;45.186;5.790;2023-04-29T10:50:31;98960.19;;;22.26;100.00
46129;BME280;31860;45.186;5.790;2023-04-29T10:52:57;98967.22;;;22.27;100.00
46129;BME280;31860;45.186;5.790;2023-04-29T10:55:23;98963.66;;;22.28;100.00
46129;BME280;31860;45.186;5.790;2023-04-29T10:57:51;98958.31;;;22.28;100.00
46129;BME280;31860;45.186;5.790;2023-04-29T11:00:27;98956.50;;;22.29;100.00
46129;BME280;31860;45.186;5.790;2023-04-29T11:02:53;98946.81;;;22.28;100.00
46129;BME280;31860;45.186;5.790;2023-04-29T11:05:33;98947.69;;;22.28;100.00
46129;BME280;31860;45.186;5.790;2023-04-29T11:08:12;98950.25;;;22.30;100.00
46129;BME280;31860;45.186;5.790;2023-04-29T11:10:47;98939.63;;;22.30;100.00
46129;BME280;31860;45.186;5.790;2023-04-29T11:13:27;98943.97;;;22.31;100.00
46129;BME280;31860;45.186;5.790;2023-04-29T11:16:03;98940.41;;;22.32;100.00
46129;BME280;31860;45.186;5.790;2023-04-29T11:18:30;98941.25;;;22.32;100.00
46129;BME280;31860;45.186;5.790;2023-04-29T11:23:34;98921.69;;;22.33;100.00
46129;BME280;31860;45.186;5.790;2023-04-29T11:26:00;98926.03;;;22.34;100.00
46129;BME280;31860;45.186;5.790;2023-04-29T11:28:32;98919.78;;;22.35;100.00
46129;BME280;31860;45.186;5.790;2023-04-29T11:30:58;98919.72;;;22.37;100.00
46129;BME280;31860;45.186;5.790;2023-04-29T11:33:25;98914.31;;;22.38;100.00
46129;BME280;31860;45.186;5.790;2023-04-29T11:35:52;98928.31;;;22.42;100.00
46129;BME280;31860;45.186;5.790;2023-04-29T11:38:26;98935.19;;;22.46;100.00
46129;BME280;31860;45.186;5.790;2023-04-29T11:40:53;98938.72;;;22.46;100.00
46129;BME280;31860;45.186;5.790;2023-04-29T11:43:21;98942.19;;;22.48;100.00
46129;BME280;31860;45.186;5.790;2023-04-29T11:45:47;98941.16;;;22.51;100.00
46129;BME280;31860;45.186;5.790;2023-04-29T11:48:25;98935.75;;;22.52;100.00
46129;BME280;31860;45.186;5.790;2023-04-29T11:50:58;98933.09;;;22.52;100.00
46129;BME280;31860;45.186;5.790;2023-04-29T11:53:25;98935.75;;;22.52;100.00
46129;BME280;31860;45.186;5.790;2023-04-29T11:55:52;98919.69;;;22.54;100.00
46129;BME280;31860;45.186;5.790;2023-04-29T11:58:22;98925.03;;;22.54;100.00
46129;BME280;31860;45.186;5.790;2023-04-29T12:00:47;98917.91;;;22.54;100.00
46129;BME280;31860;45.186;5.790;2023-04-29T12:03:17;98916.09;;;22.55;100.00
46129;BME280;31860;45.186;5.790;2023-04-29T12:05:50;98916.06;;;22.56;100.00
46129;BME280;31860;45.186;5.790;2023-04-29T12:08:26;98910.72;;;22.56;100.00
46129;BME280;31860;45.186;5.790;2023-04-29T12:10:57;98914.22;;;22.57;100.00
46129;BME280;31860;45.186;5.790;2023-04-29T12:13:28;98911.50;;;22.58;100.00
46129;BME280;31860;45.186;5.790;2023-04-29T12:15:55;98923.78;;;22.61;100.00
46129;BME280;31860;45.186;5.790;2023-04-29T12:18:21;98915.72;;;22.63;100.00
46129;BME280;31860;45.186;5.790;2023-04-29T12:20:48;98919.16;;;22.65;100.00
46129;BME280;31860;45.186;5.790;2023-04-29T12:23:20;98916.44;;;22.66;100.00
46129;BME280;31860;45.186;5.790;2023-04-29T12:25:56;98922.53;;;22.68;100.00
46129;BME280;31860;45.186;5.790;2023-04-29T12:28:23;98923.47;;;22.67;100.00
46129;BME280;31860;45.186;5.790;2023-04-29T12:30:50;98924.25;;;22.69;100.00
46129;BME280;31860;45.186;5.790;2023-04-29T12:33:27;98920.66;;;22.70;100.00
46129;BME280;31860;45.186;5.790;2023-04-29T12:35:57;98925.09;;;22.70;100.00
46129;BME280;31860;45.186;5.790;2023-04-29T12:38:24;98923.31;;;22.70;100.00
46129;BME280;31860;45.186;5.790;2023-04-29T12:40:54;98930.44;;;22.70;100.00
46129;BME280;31860;45.186;5.790;2023-04-29T12:43:30;98927.78;;;22.70;100.00
46129;BME280;31860;45.186;5.790;2023-04-29T12:46:04;98926.13;;;22.67;100.00
46129;BME280;31860;45.186;5.790;2023-04-29T12:48:30;98925.25;;;22.67;100.00
46129;BME280;31860;45.186;5.790;2023-04-29T12:50:57;98926.13;;;22.67;100.00
46129;BME280;31860;45.186;5.790;2023-04-29T12:53:24;98926.13;;;22.67;100.00
46129;BME280;31860;45.186;5.790;2023-04-29T12:55:51;98931.44;;;22.67;100.00
46129;BME280;31860;45.186;5.790;2023-04-29T12:58:16;98933.19;;;22.68;100.00
46129;BME280;31860;45.186;5.790;2023-04-29T13:00:42;98927.88;;;22.68;100.00
46129;BME280;31860;45.186;5.790;2023-04-29T13:03:07;98933.09;;;22.70;100.00
46129;BME280;31860;45.186;5.790;2023-04-29T13:05:33;98933.88;;;22.72;100.00
46129;BME280;31860;45.186;5.790;2023-04-29T13:07:58;98931.22;;;22.72;100.00
46129;BME280;31860;45.186;5.790;2023-04-29T13:10:24;98925.88;;;22.72;100.00